Terminal Aerodrome Forecast
Issued by NWS

Home | Current Version | Previous Version | Text Only | Print | Product List | Glossary On
Versions: 1 2 3 4 5 6 7 8 9 10 11 12 13
000
FTUS46 KLOX 272356
TAFPMD
TAF
KPMD 272356Z 2800/2824 26015G23KT P6SM SKC
     FM280300 24010KT P6SM SKC
     FM280700 20008KT P6SM SKC
     FM281500 VRB03KT P6SM SKC
     FM281800 04007KT P6SM SKC
     FM282300 25010KT P6SM SKC=

USA.gov is the U.S. government's official web portal to all federal, state and local government web resources and services.